createdAt,value
2023-06-14T00:01:30.290Z,0.00
2023-06-14T00:03:57.043Z,0.20
2023-06-14T00:06:25.540Z,0.10
2023-06-14T00:08:52.307Z,0.20
2023-06-14T00:11:18.804Z,0.00
2023-06-14T00:13:45.211Z,0.30
2023-06-14T00:16:11.653Z,0.00
2023-06-14T00:18:39.263Z,0.10
2023-06-14T00:21:06.356Z,0.08
2023-06-14T00:23:32.692Z,0.08
2023-06-14T00:25:59.152Z,0.20
2023-06-14T00:28:25.643Z,0.00
2023-06-14T00:30:51.985Z,0.15
2023-06-14T00:33:18.400Z,0.08
2023-06-14T00:35:44.852Z,0.20
2023-06-14T00:38:11.250Z,0.25
2023-06-14T00:40:38.211Z,0.15
2023-06-14T00:43:04.661Z,0.00
2023-06-14T00:45:32.621Z,0.10
2023-06-14T00:47:59.567Z,0.00
2023-06-14T00:50:25.972Z,0.10
2023-06-14T00:52:52.429Z,0.10
2023-06-14T00:55:18.917Z,0.00
2023-06-14T00:57:46.664Z,0.10
2023-06-14T01:00:14.051Z,0.10
2023-06-14T01:02:41.087Z,0.00
2023-06-14T01:05:08.499Z,0.17
2023-06-14T01:07:51.240Z,0.20
2023-06-14T01:10:23.345Z,0.15
2023-06-14T01:13:03.750Z,0.10
2023-06-14T01:15:31.883Z,0.30
2023-06-14T01:18:04.024Z,0.20
2023-06-14T01:20:32.078Z,0.10
2023-06-14T01:22:58.397Z,0.10
2023-06-14T01:25:26.222Z,0.00
2023-06-14T01:27:56.270Z,0.00
2023-06-14T01:30:24.164Z,0.05
2023-06-14T01:32:51.559Z,0.00
2023-06-14T01:35:18.178Z,0.20
2023-06-14T01:37:44.885Z,0.00
2023-06-14T01:40:12.011Z,0.38
2023-06-14T01:42:39.410Z,0.20
2023-06-14T01:45:06.740Z,0.10
2023-06-14T01:47:33.917Z,0.20
2023-06-14T01:50:00.442Z,0.05
2023-06-14T01:52:26.964Z,0.08
2023-06-14T01:54:53.295Z,0.10
2023-06-14T01:57:21.465Z,0.00
2023-06-14T01:59:49.432Z,0.00
2023-06-14T02:02:16.318Z,0.00
2023-06-14T02:04:42.912Z,0.10
2023-06-14T02:07:09.305Z,0.00
2023-06-14T02:09:38.696Z,0.05
2023-06-14T02:12:05.344Z,0.10
2023-06-14T02:14:31.769Z,0.05
2023-06-14T02:16:58.130Z,0.00
2023-06-14T02:19:24.475Z,0.00
2023-06-14T02:21:51.104Z,0.00
2023-06-14T02:24:17.463Z,0.10
2023-06-14T02:26:43.862Z,0.00
2023-06-14T02:29:12.072Z,0.00
2023-06-14T02:31:38.844Z,0.00
2023-06-14T02:34:05.488Z,0.00
2023-06-14T02:36:31.847Z,0.00
2023-06-14T02:39:00.915Z,0.00
2023-06-14T02:41:27.824Z,0.00
2023-06-14T02:43:54.543Z,0.10
2023-06-14T02:46:21.154Z,0.00
2023-06-14T02:48:47.513Z,0.22
2023-06-14T02:51:14.371Z,0.05
2023-06-14T02:53:41.806Z,0.03
2023-06-14T02:56:08.190Z,0.95
2023-06-14T02:58:34.522Z,0.10
2023-06-14T03:01:04.706Z,0.00
2023-06-14T03:03:31.316Z,0.00
2023-06-14T03:05:58.088Z,0.00
2023-06-14T03:08:28.098Z,0.00
2023-06-14T03:10:54.544Z,0.00
2023-06-14T03:13:24.448Z,0.00
2023-06-14T03:15:51.522Z,0.00
2023-06-14T03:18:17.984Z,0.05
2023-06-14T03:20:46.517Z,0.10
2023-06-14T03:23:13.430Z,0.00
2023-06-14T03:25:41.721Z,0.13
2023-06-14T03:28:08.237Z,0.00
2023-06-14T03:30:34.665Z,0.00
2023-06-14T03:33:03.856Z,0.10
2023-06-14T03:35:30.510Z,0.00
2023-06-14T03:37:57.066Z,0.05
2023-06-14T03:40:24.507Z,0.00
2023-06-14T03:42:50.897Z,0.00
2023-06-14T03:45:17.195Z,0.32
2023-06-14T03:47:43.607Z,0.00
2023-06-14T03:50:10.310Z,0.05
2023-06-14T03:52:37.806Z,0.00
2023-06-14T03:57:33.642Z,0.15
2023-06-14T04:00:00.013Z,0.00
2023-06-14T04:02:27.704Z,0.10
2023-06-14T04:04:55.377Z,0.00
2023-06-14T04:07:21.961Z,0.00
2023-06-14T04:09:48.362Z,0.13
2023-06-14T04:12:14.697Z,0.00
2023-06-14T04:14:41.488Z,0.00
2023-06-14T04:17:07.804Z,0.00
2023-06-14T04:19:34.156Z,0.00
2023-06-14T04:22:03.640Z,0.00
2023-06-14T04:24:33.044Z,0.20
2023-06-14T04:26:59.898Z,0.00
2023-06-14T04:29:27.884Z,0.10
2023-06-14T04:32:00.749Z,0.10
2023-06-14T04:34:30.656Z,0.00
2023-06-14T04:36:58.471Z,0.00
2023-06-14T04:39:25.044Z,0.10
2023-06-14T04:41:57.767Z,0.00
2023-06-14T04:44:32.587Z,0.00
2023-06-14T04:46:59.806Z,0.00
2023-06-14T04:49:28.533Z,0.13
2023-06-14T04:52:02.416Z,0.10
2023-06-14T04:54:28.941Z,0.32
2023-06-14T04:56:56.316Z,0.00
2023-06-14T04:59:25.669Z,0.35
2023-06-14T05:01:52.526Z,0.20
2023-06-14T05:04:19.715Z,0.20
2023-06-14T05:06:49.255Z,0.00
2023-06-14T05:09:16.982Z,0.00
2023-06-14T05:11:45.234Z,0.00
2023-06-14T05:14:12.431Z,0.10
2023-06-14T05:16:40.052Z,0.17
2023-06-14T05:19:06.512Z,0.00
2023-06-14T05:21:38.560Z,0.00
2023-06-14T05:24:08.060Z,0.00
2023-06-14T05:26:34.677Z,0.20
2023-06-14T05:29:02.419Z,0.00
2023-06-14T05:31:29.102Z,0.13
2023-06-14T05:33:55.912Z,0.00
2023-06-14T05:36:22.370Z,0.00
2023-06-14T05:38:49.068Z,0.43
2023-06-14T05:41:15.603Z,0.00
2023-06-14T05:43:41.975Z,0.10
2023-06-14T05:46:08.378Z,0.10
2023-06-14T05:48:34.728Z,0.10
2023-06-14T05:51:01.849Z,0.20
2023-06-14T05:53:28.229Z,0.10
2023-06-14T05:55:56.057Z,0.25
2023-06-14T05:58:23.079Z,0.20
2023-06-14T06:00:49.476Z,0.00
2023-06-14T06:03:16.205Z,0.10
2023-06-14T06:05:43.311Z,0.20
2023-06-14T06:08:10.657Z,0.32
2023-06-14T06:10:37.036Z,0.10
2023-06-14T06:13:03.520Z,0.20
2023-06-14T06:15:29.816Z,0.10
2023-06-14T06:17:57.009Z,0.30
2023-06-14T06:20:29.536Z,0.40
2023-06-14T06:22:56.717Z,0.30
2023-06-14T06:25:23.495Z,0.30
2023-06-14T06:27:49.901Z,0.40
2023-06-14T06:30:16.987Z,0.38
2023-06-14T06:32:43.472Z,0.40
2023-06-14T06:35:11.922Z,0.50
2023-06-14T06:37:38.473Z,0.40
2023-06-14T06:40:07.038Z,0.70
2023-06-14T06:42:33.555Z,0.50
2023-06-14T06:44:59.910Z,0.40
2023-06-14T06:47:26.367Z,0.57
2023-06-14T06:49:52.975Z,0.60
2023-06-14T06:52:19.779Z,0.60
2023-06-14T06:54:46.342Z,0.55
2023-06-14T06:57:13.011Z,0.50
2023-06-14T06:59:39.460Z,0.60
2023-06-14T07:02:06.138Z,0.55
2023-06-14T07:04:32.763Z,0.60
2023-06-14T07:06:59.165Z,1.15
2023-06-14T07:09:25.632Z,0.60
2023-06-14T07:11:52.008Z,0.60
2023-06-14T07:14:18.536Z,0.80
2023-06-14T07:16:45.064Z,0.70
2023-06-14T07:19:11.486Z,0.80
2023-06-14T07:21:40.754Z,0.70
2023-06-14T07:24:08.982Z,0.70
2023-06-14T07:26:36.386Z,0.60
2023-06-14T07:29:02.777Z,0.77
2023-06-14T07:31:29.358Z,0.60
2023-06-14T07:33:55.803Z,0.70
2023-06-14T07:36:22.763Z,0.60
2023-06-14T07:38:49.132Z,0.60
2023-06-14T07:41:15.582Z,0.70
2023-06-14T07:43:41.916Z,0.60
2023-06-14T07:46:09.310Z,0.60
2023-06-14T07:48:37.407Z,0.70
2023-06-14T07:51:04.036Z,0.70
2023-06-14T07:53:31.754Z,0.80
2023-06-14T07:56:01.290Z,0.70
2023-06-14T07:58:28.707Z,0.60
2023-06-14T08:00:55.061Z,0.60
2023-06-14T08:03:21.706Z,0.70
2023-06-14T08:05:48.180Z,0.60
2023-06-14T08:08:14.686Z,0.70
2023-06-14T08:10:41.140Z,0.60
2023-06-14T08:13:07.475Z,0.70
2023-06-14T08:15:34.715Z,0.60
2023-06-14T08:18:02.199Z,0.57
2023-06-14T08:20:28.686Z,0.90
2023-06-14T08:22:57.856Z,0.60
2023-06-14T08:25:24.242Z,0.50
2023-06-14T08:27:51.480Z,0.60
2023-06-14T08:30:18.473Z,0.60
2023-06-14T08:32:45.180Z,0.50
2023-06-14T08:35:13.714Z,0.45
2023-06-14T08:37:41.664Z,0.45
2023-06-14T08:40:13.871Z,0.45
2023-06-14T08:42:41.276Z,0.40
2023-06-14T08:45:07.776Z,0.40
2023-06-14T08:47:41.765Z,0.30
2023-06-14T08:50:19.772Z,0.38
2023-06-14T08:53:01.634Z,0.40
2023-06-14T08:55:28.348Z,0.45
2023-06-14T08:57:55.780Z,0.30
2023-06-14T09:00:23.549Z,0.40
2023-06-14T09:02:50.248Z,0.30
2023-06-14T09:05:19.289Z,0.30
2023-06-14T09:07:45.757Z,0.20
2023-06-14T09:10:13.190Z,0.28
2023-06-14T09:12:40.660Z,0.20
2023-06-14T09:15:09.482Z,0.30
2023-06-14T09:17:36.804Z,0.63
2023-06-14T09:20:07.368Z,0.30
2023-06-14T09:22:34.009Z,0.40
2023-06-14T09:25:00.753Z,0.20
2023-06-14T09:27:27.977Z,0.50
2023-06-14T09:29:54.525Z,0.10
2023-06-14T09:32:21.585Z,0.15
2023-06-14T09:34:48.093Z,0.10
2023-06-14T09:37:14.422Z,0.30
2023-06-14T09:39:50.680Z,0.10
2023-06-14T09:42:19.149Z,0.13
2023-06-14T09:44:48.429Z,0.10
2023-06-14T09:47:15.781Z,0.08
2023-06-14T09:49:42.387Z,0.40
2023-06-14T09:52:11.456Z,0.20
2023-06-14T09:54:41.390Z,0.50
2023-06-14T09:57:08.742Z,0.28
2023-06-14T09:59:36.021Z,0.10
2023-06-14T10:02:07.317Z,0.13
2023-06-14T10:07:01.715Z,0.10
2023-06-14T10:09:30.395Z,0.10
2023-06-14T10:11:58.335Z,0.13
2023-06-14T10:14:24.849Z,0.10
2023-06-14T10:17:01.607Z,0.35
2023-06-14T10:19:36.315Z,0.20
2023-06-14T10:22:06.273Z,0.30
2023-06-14T10:24:40.153Z,0.20
2023-06-14T10:27:11.359Z,0.10
2023-06-14T10:29:59.228Z,0.40
2023-06-14T10:32:26.563Z,0.50
2023-06-14T10:34:57.187Z,0.10
2023-06-14T10:37:23.669Z,0.10
2023-06-14T10:39:51.220Z,0.20
2023-06-14T10:42:17.623Z,0.20
2023-06-14T10:44:50.362Z,0.43
2023-06-14T10:47:25.758Z,0.20
2023-06-14T10:50:15.704Z,0.20
2023-06-14T10:52:45.299Z,0.30
2023-06-14T10:55:15.885Z,0.30
2023-06-14T10:57:51.903Z,0.20
2023-06-14T11:00:23.426Z,0.20
2023-06-14T11:03:00.197Z,0.20
2023-06-14T11:05:30.054Z,0.10
2023-06-14T11:08:03.623Z,0.10
2023-06-14T11:10:42.847Z,0.20
2023-06-14T11:13:09.386Z,0.15
2023-06-14T11:15:36.864Z,0.20
2023-06-14T11:18:04.559Z,0.10
2023-06-14T11:20:31.786Z,0.10
2023-06-14T11:23:00.700Z,0.10
2023-06-14T11:25:29.056Z,0.10
2023-06-14T11:27:55.776Z,0.10
2023-06-14T11:30:22.635Z,0.20
2023-06-14T11:32:55.002Z,0.20
2023-06-14T11:35:24.331Z,0.30
2023-06-14T11:37:53.686Z,0.20
2023-06-14T11:40:20.080Z,0.73
2023-06-14T11:42:47.397Z,0.20
2023-06-14T11:45:13.891Z,0.20
2023-06-14T11:47:40.787Z,0.22
2023-06-14T11:50:09.395Z,0.20
2023-06-14T11:52:37.066Z,0.20
2023-06-14T11:55:06.269Z,0.20
2023-06-14T11:57:36.982Z,0.10
2023-06-14T12:00:08.997Z,0.30
2023-06-14T12:02:35.610Z,0.10
2023-06-14T12:05:06.483Z,0.10
2023-06-14T12:07:32.874Z,0.20
2023-06-14T12:09:59.281Z,0.17
2023-06-14T12:12:26.575Z,0.20
2023-06-14T12:14:53.412Z,0.10
2023-06-14T12:17:20.565Z,0.20
2023-06-14T12:19:47.703Z,0.20
2023-06-14T12:22:14.749Z,0.13
2023-06-14T12:24:44.132Z,0.10
2023-06-14T12:27:12.704Z,0.25
2023-06-14T12:29:40.287Z,0.52
2023-06-14T12:32:06.932Z,0.20
2023-06-14T12:34:34.412Z,0.20
2023-06-14T12:37:00.774Z,0.10
2023-06-14T12:39:27.068Z,0.22
2023-06-14T12:41:53.542Z,0.22
2023-06-14T12:44:22.789Z,0.32
2023-06-14T12:46:50.214Z,0.20
2023-06-14T12:49:16.755Z,0.45
2023-06-14T12:51:45.744Z,0.25
2023-06-14T12:54:14.228Z,0.25
2023-06-14T12:56:42.746Z,0.10
2023-06-14T12:59:09.120Z,0.20
2023-06-14T13:01:35.657Z,0.20
2023-06-14T13:04:02.258Z,0.20
2023-06-14T13:06:30.615Z,0.20
2023-06-14T13:08:58.902Z,0.20
2023-06-14T13:11:25.405Z,0.10
2023-06-14T13:13:51.772Z,0.20
2023-06-14T13:16:22.101Z,0.20
2023-06-14T13:18:48.500Z,0.28
2023-06-14T13:21:14.849Z,0.28
2023-06-14T13:23:42.208Z,0.22
2023-06-14T13:26:08.576Z,0.10
2023-06-14T13:28:36.301Z,0.20
2023-06-14T13:31:03.025Z,0.45
2023-06-14T13:33:29.356Z,0.10
2023-06-14T13:35:55.754Z,0.13
2023-06-14T13:38:23.578Z,0.20
2023-06-14T13:40:53.252Z,0.10
2023-06-14T13:43:19.779Z,0.30
2023-06-14T13:45:47.668Z,0.20
2023-06-14T13:48:14.463Z,0.20
2023-06-14T13:50:40.829Z,0.20
2023-06-14T13:53:07.620Z,0.20
2023-06-14T13:55:34.055Z,0.30
2023-06-14T13:58:00.394Z,0.22
2023-06-14T14:00:27.254Z,0.30
2023-06-14T14:02:53.667Z,0.10
2023-06-14T14:05:21.598Z,0.10
2023-06-14T14:07:47.938Z,0.20
2023-06-14T14:10:16.964Z,0.20
2023-06-14T14:12:43.685Z,0.40
2023-06-14T14:15:14.495Z,0.20
2023-06-14T14:17:41.210Z,0.17
2023-06-14T14:20:08.210Z,0.20
2023-06-14T14:22:34.688Z,0.50
2023-06-14T14:25:01.134Z,0.20
2023-06-14T14:27:27.508Z,0.20
2023-06-14T14:29:53.840Z,0.20
2023-06-14T14:32:20.322Z,0.20
2023-06-14T14:34:46.829Z,0.30
2023-06-14T14:37:14.353Z,0.20
2023-06-14T14:39:40.791Z,0.20
2023-06-14T14:42:08.808Z,0.20
2023-06-14T14:44:35.550Z,0.30
2023-06-14T14:47:04.218Z,0.17
2023-06-14T14:49:32.066Z,0.20
2023-06-14T14:52:08.422Z,0.25
2023-06-14T14:54:44.982Z,0.20
2023-06-14T14:57:11.711Z,0.20
2023-06-14T14:59:38.063Z,0.20
2023-06-14T15:02:04.980Z,0.20
2023-06-14T15:04:31.412Z,0.22
2023-06-14T15:06:58.160Z,0.20
2023-06-14T15:09:24.538Z,0.20
2023-06-14T15:11:53.885Z,0.35
2023-06-14T15:14:20.704Z,0.20
2023-06-14T15:16:47.116Z,0.30
2023-06-14T15:19:13.585Z,0.20
2023-06-14T15:21:43.041Z,0.10
2023-06-14T15:24:09.790Z,0.15
2023-06-14T15:26:36.182Z,0.20
2023-06-14T15:29:02.530Z,0.20
2023-06-14T15:31:30.113Z,0.20
2023-06-14T15:33:56.712Z,0.28
2023-06-14T15:36:23.140Z,0.20
2023-06-14T15:38:49.603Z,0.20
2023-06-14T15:41:15.895Z,0.20
2023-06-14T15:43:42.464Z,0.25
2023-06-14T15:46:09.042Z,0.20
2023-06-14T15:48:35.619Z,0.30
2023-06-14T15:51:02.224Z,0.20
2023-06-14T15:53:28.667Z,0.20
2023-06-14T15:55:56.192Z,0.20
2023-06-14T15:58:23.036Z,0.20
2023-06-14T16:00:49.528Z,0.20
2023-06-14T16:03:16.112Z,0.73
2023-06-14T16:05:42.665Z,0.20
2023-06-14T16:08:09.075Z,0.22
2023-06-14T16:10:35.617Z,0.20
2023-06-14T16:13:02.051Z,0.20
2023-06-14T16:15:28.514Z,0.20
2023-06-14T16:17:55.772Z,0.20
2023-06-14T16:20:22.310Z,0.20
2023-06-14T16:22:56.217Z,0.20
2023-06-14T16:25:22.624Z,0.20
2023-06-14T16:27:49.095Z,0.20
2023-06-14T16:30:16.572Z,0.20
2023-06-14T16:32:43.431Z,0.20
2023-06-14T16:35:09.829Z,0.20
2023-06-14T16:37:36.127Z,0.17
2023-06-14T16:40:02.574Z,0.40
2023-06-14T16:42:31.137Z,0.20
2023-06-14T16:44:59.243Z,0.30
2023-06-14T16:47:25.717Z,0.30
2023-06-14T16:49:52.086Z,0.30
2023-06-14T16:52:18.728Z,0.20
2023-06-14T16:54:45.374Z,0.30
2023-06-14T16:57:12.407Z,0.15
2023-06-14T16:59:38.997Z,0.20
2023-06-14T17:02:06.371Z,0.20
2023-06-14T17:04:33.088Z,0.30
2023-06-14T17:06:59.632Z,0.10
2023-06-14T17:09:26.533Z,0.20
2023-06-14T17:11:52.982Z,0.28
2023-06-14T17:14:19.570Z,0.30
2023-06-14T17:16:45.988Z,0.10
2023-06-14T17:19:12.457Z,0.10
2023-06-14T17:21:38.861Z,0.10
2023-06-14T17:24:20.197Z,0.15
2023-06-14T17:26:51.376Z,0.20
2023-06-14T17:29:17.782Z,0.15
2023-06-14T17:31:44.129Z,0.10
2023-06-14T17:34:10.721Z,0.20
2023-06-14T17:36:37.165Z,0.10
2023-06-14T17:39:04.033Z,0.10
2023-06-14T17:41:33.239Z,0.10
2023-06-14T17:44:01.086Z,0.20
2023-06-14T17:46:27.650Z,0.10
2023-06-14T17:48:54.004Z,0.20
2023-06-14T17:51:21.689Z,0.20
2023-06-14T17:53:48.075Z,0.20
2023-06-14T17:56:14.456Z,0.10
2023-06-14T17:58:40.789Z,0.20
2023-06-14T18:01:07.634Z,0.15
2023-06-14T18:03:35.190Z,0.10
2023-06-14T18:06:01.825Z,0.15
2023-06-14T18:08:28.262Z,0.10
2023-06-14T18:10:55.612Z,0.10
2023-06-14T18:13:21.924Z,0.10
2023-06-14T18:15:48.382Z,0.30
2023-06-14T18:18:14.861Z,0.10
2023-06-14T18:20:41.442Z,0.10
2023-06-14T18:23:10.099Z,0.10
2023-06-14T18:25:38.006Z,0.10
2023-06-14T18:28:04.714Z,0.40
2023-06-14T18:30:33.006Z,0.20
2023-06-14T18:32:59.498Z,0.10
2023-06-14T18:35:26.202Z,0.13
2023-06-14T18:37:52.895Z,0.30
2023-06-14T18:40:19.532Z,0.10
2023-06-14T18:42:46.306Z,0.20
2023-06-14T18:45:12.781Z,0.30
2023-06-14T18:47:39.111Z,0.10
2023-06-14T18:50:06.141Z,0.10
2023-06-14T18:52:32.669Z,0.15
2023-06-14T18:54:59.425Z,0.20
2023-06-14T18:57:26.332Z,0.15
2023-06-14T18:59:52.904Z,0.10
2023-06-14T19:02:19.451Z,0.10
2023-06-14T19:04:45.814Z,0.22
2023-06-14T19:07:12.181Z,0.30
2023-06-14T19:09:38.587Z,0.10
2023-06-14T19:12:05.259Z,0.25
2023-06-14T19:14:31.570Z,0.15
2023-06-14T19:16:58.296Z,0.10
2023-06-14T19:19:25.176Z,0.13
2023-06-14T19:21:53.292Z,0.10
2023-06-14T19:24:20.072Z,0.20
2023-06-14T19:26:48.750Z,0.22
2023-06-14T19:29:15.442Z,0.10
2023-06-14T19:31:43.099Z,0.10
2023-06-14T19:34:09.548Z,0.25
2023-06-14T19:36:36.104Z,0.00
2023-06-14T19:39:02.574Z,0.00
2023-06-14T19:41:29.085Z,0.10
2023-06-14T19:43:57.659Z,0.10
2023-06-14T19:46:26.423Z,0.30
2023-06-14T19:48:53.245Z,0.20
2023-06-14T19:51:19.777Z,0.00
2023-06-14T19:53:46.196Z,0.43
2023-06-14T19:56:13.546Z,0.03
2023-06-14T19:58:40.304Z,0.10
2023-06-14T20:01:07.155Z,0.10
2023-06-14T20:03:33.663Z,0.00
2023-06-14T20:05:59.992Z,0.25
2023-06-14T20:08:31.274Z,0.10
2023-06-14T20:10:57.659Z,0.10
2023-06-14T20:13:26.000Z,0.08
2023-06-14T20:15:52.457Z,0.05
2023-06-14T20:18:19.841Z,0.25
2023-06-14T20:20:46.444Z,0.13
2023-06-14T20:23:14.318Z,0.05
2023-06-14T20:25:40.601Z,0.00
2023-06-14T20:28:06.992Z,0.10
2023-06-14T20:30:33.349Z,0.00
2023-06-14T20:32:59.789Z,0.08
2023-06-14T20:35:28.415Z,0.03
2023-06-14T20:37:54.740Z,0.00
2023-06-14T20:40:21.911Z,0.10
2023-06-14T20:42:49.130Z,0.00
2023-06-14T20:45:16.167Z,0.10
2023-06-14T20:47:43.520Z,0.00
2023-06-14T20:50:12.554Z,0.05
2023-06-14T20:52:39.793Z,0.10
2023-06-14T20:55:06.564Z,0.10
2023-06-14T20:57:33.617Z,0.10
2023-06-14T21:00:00.106Z,0.10
2023-06-14T21:02:26.491Z,0.03
2023-06-14T21:04:55.985Z,0.20
2023-06-14T21:07:22.336Z,0.10
2023-06-14T21:09:48.765Z,0.10
2023-06-14T21:12:15.494Z,0.00
2023-06-14T21:14:41.879Z,0.15
2023-06-14T21:17:09.617Z,0.00
2023-06-14T21:19:36.200Z,0.08
2023-06-14T21:22:02.631Z,0.10
2023-06-14T21:24:29.217Z,0.00
2023-06-14T21:26:55.754Z,0.00
2023-06-14T21:29:22.091Z,0.00
2023-06-14T21:31:48.728Z,0.20
2023-06-14T21:34:15.321Z,0.00
2023-06-14T21:36:41.670Z,0.03
2023-06-14T21:39:08.403Z,0.03
2023-06-14T21:41:38.807Z,0.00
2023-06-14T21:44:05.887Z,0.00
2023-06-14T21:46:32.496Z,0.10
2023-06-14T21:48:58.948Z,0.00
2023-06-14T21:51:25.322Z,0.10
2023-06-14T21:53:51.999Z,0.00
2023-06-14T21:56:19.767Z,0.10
2023-06-14T21:58:46.158Z,0.13
2023-06-14T22:01:12.643Z,0.00
2023-06-14T22:03:40.166Z,0.00
2023-06-14T22:06:06.651Z,0.10
2023-06-14T22:08:34.733Z,0.20
2023-06-14T22:11:09.236Z,0.00
2023-06-14T22:13:36.047Z,0.00
2023-06-14T22:16:03.518Z,0.17
2023-06-14T22:18:32.563Z,0.00
2023-06-14T22:21:01.024Z,0.17
2023-06-14T22:23:37.456Z,0.35
2023-06-14T22:26:05.120Z,0.10
2023-06-14T22:28:39.353Z,0.10
2023-06-14T22:31:09.076Z,0.10
2023-06-14T22:33:42.864Z,0.00
2023-06-14T22:36:10.864Z,0.00
2023-06-14T22:38:43.552Z,0.22
2023-06-14T22:41:10.199Z,0.00
2023-06-14T22:43:41.016Z,0.05
2023-06-14T22:46:08.113Z,0.10
2023-06-14T22:48:50.853Z,0.00
2023-06-14T22:51:18.757Z,0.00
2023-06-14T22:53:45.200Z,0.00
2023-06-14T22:56:12.104Z,0.00
2023-06-14T22:58:42.990Z,0.00
2023-06-14T23:01:11.568Z,0.00
2023-06-14T23:03:37.995Z,0.10
2023-06-14T23:06:04.840Z,0.00
2023-06-14T23:08:32.463Z,0.00
2023-06-14T23:10:58.992Z,0.00
2023-06-14T23:13:26.812Z,0.00
2023-06-14T23:15:53.189Z,0.00
2023-06-14T23:18:19.608Z,0.10
2023-06-14T23:20:45.922Z,0.00
2023-06-14T23:23:12.318Z,0.00
2023-06-14T23:25:38.728Z,0.15
2023-06-14T23:28:08.137Z,0.00
2023-06-14T23:30:36.834Z,0.00
2023-06-14T23:33:03.674Z,0.00
2023-06-14T23:35:32.058Z,0.00
2023-06-14T23:37:59.036Z,0.00
2023-06-14T23:40:26.887Z,0.00
2023-06-14T23:42:53.719Z,0.00
2023-06-14T23:45:25.977Z,0.00
2023-06-14T23:47:53.046Z,0.08
2023-06-14T23:50:21.409Z,0.00
2023-06-14T23:52:47.791Z,0.00
2023-06-14T23:55:23.421Z,0.20
2023-06-14T23:57:51.449Z,0.00
